This is the latest recevied weather packets stored in our database for station/object DB7GV-8. If no packets are shown the sender has not sent any weather packets the latest 10 day(s).
| Time | Temp. | Humidity | Pressure | Rain* | Wind** | Luminosity | Snow |
|---|---|---|---|---|---|---|---|
| 1777515737 | 8.33° C | 41% | 1022.8 hPa | - | - | - | - |
| 1777514832 | 8.33° C | 40% | 1022.7 hPa | - | - | - | - |
| 1777513926 | 8.89° C | 40% | 1022.6 hPa | - | - | - | - |
| 1777513021 | 8.89° C | 40% | 1022.8 hPa | - | - | - | - |
| 1777512115 | 8.89° C | 40% | 1022.6 hPa | - | - | - | - |
| 1777510305 | 9.44° C | 39% | 1022.3 hPa | - | - | - | - |
| 1777508494 | 9.44° C | 40% | 1022.1 hPa | - | - | - | - |
| 1777507588 | 9.44° C | 41% | 1022.2 hPa | - | - | - | - |
| 1777497629 | 12.22° C | 37% | 1022 hPa | - | - | - | - |
| 1777496724 | 12.22° C | 39% | 1021.9 hPa | - | - | - | - |
| 1777489480 | 14.44° C | 39% | 1020.6 hPa | - | - | - | - |
| 1777488575 | 15.56° C | 37% | 1020.3 hPa | - | - | - | - |
| 1777486764 | 16.67° C | 34% | 1020 hPa | - | - | - | - |
| 1777485858 | 17.22° C | 34% | 1019.8 hPa | - | - | - | - |
| 1777484048 | 18.33° C | 31% | 1019.4 hPa | - | - | - | - |
| 1777483142 | 18.89° C | 30% | 1019.3 hPa | - | - | - | - |
| 1777480426 | 22.22° C | 27% | 1019.1 hPa | - | - | - | - |
| 1777479520 | 22.22° C | 26% | 1019.1 hPa | - | - | - | - |
| 1777478615 | 22.22° C | 25% | 1019 hPa | - | - | - | - |
| 1777476804 | 22.78° C | 24% | 1019.1 hPa | - | - | - | - |
| 1777475899 | 23.33° C | 24% | 1018.9 hPa | - | - | - | - |
| 1777474994 | 23.33° C | 25% | 1019 hPa | - | - | - | - |
| 1777469561 | 23.89° C | 26% | 1018.8 hPa | - | - | - | - |
| 1777468655 | 23.89° C | 26% | 1018.9 hPa | - | - | - | - |
| 1777467750 | 23.33° C | 28% | 1018.9 hPa | - | - | - | - |
* Rain since midnight (hover to see other rain measurements)
** Current wind speed in m/s (hover to see current wind gust speed)